Sardinia Regina — IBMS — position and weather

sailwx.info

Track history (hours):
 
Tides and Currents Weather Stations Pressure Air Temp Water Temp Dewpoint Dewpoint Depression Visibility Wind Speed Wind Dir Waves Ship Positions

Sardinia Regina

Last reported at 2014-Dec-21 04:33 UTC. Time now 2014-Dec-21 05:29 UTC.
Position N 43°60' E 008°44'.

Length 146 m; draft 5 m.

Type: Passenger vessel. MMSI: 247079000.

Date/timePositionNaut miles runAvg speedWind from/ knotsBaromVisibWave heightAir tempDewpointWater temp
2014-Dec-21 04:33N 43°60' E 008°44'9 8.9
2014-Dec-21 03:33N 43°52' E 008°50'9 9.2
2014-Dec-21 02:34N 43°44' E 008°57'9 9.3
2014-Dec-21 01:33N 43°37' E 009°04'9 9.5
2014-Dec-21 00:34N 43°29' E 009°11'9 9.4
2014-Dec-20 23:33N 43°21' E 009°18'34 4.6
2014-Dec-20 16:07N 42°54' E 009°47'1117.4
2014-Dec-20 15:29N 43°02' E 009°58'1617.6
2014-Dec-20 14:33N 43°17' E 010°06'1616.3
2014-Dec-20 13:33N 43°32' E 010°16'2 2.2
2014-Dec-20 12:33N 43°33' E 010°18'0 0.0
2014-Dec-20 11:33N 43°33' E 010°18'0 0.0
2014-Dec-20 10:33N 43°33' E 010°18'0 0.0
2014-Dec-20 09:33N 43°33' E 010°18'0 0.0
2014-Dec-20 08:33N 43°33' E 010°18'0 0.0
2014-Dec-20 07:33N 43°33' E 010°18'0 0.0
2014-Dec-20 06:33N 43°33' E 010°18'2 2.3
2014-Dec-20 05:33N 43°32' E 010°16'1514.6
2014-Dec-20 04:33N 43°17' E 010°12'14215.2
2014-Dec-19 19:13N 40°58' E 009°37'125 6.0
2014-Dec-18 22:22N 43°02' E 010°01'1316.7
2014-Dec-18 21:34N 43°15' E 010°06'1716.5
2014-Dec-18 20:33N 43°30' E 010°13'4 4.5
2014-Dec-18 19:33N 43°33' E 010°18'0 0.0
2014-Dec-18 18:33N 43°33' E 010°18'1 1.3
2014-Dec-18 17:33N 43°32' E 010°17'1414.2
2014-Dec-18 16:33N 43°20' E 010°08'30 4.9
2014-Dec-18 10:27N 42°54' E 009°48'1415.6
2014-Dec-18 09:32N 43°05' E 009°60'1515.3
2014-Dec-18 08:34N 43°19' E 010°06'1414.3
2014-Dec-18 07:33N 43°32' E 010°15'3 2.5
2014-Dec-18 06:33N 43°33' E 010°18'0 0.4
2014-Dec-18 05:34N 43°33' E 010°18'1414.1
2014-Dec-18 04:34N 43°20' E 010°10'1716.6
2014-Dec-18 03:33N 43°04' E 010°05'12815.5
2014-Dec-17 19:20N 40°57' E 009°38'2 0.2
2014-Dec-17 07:29N 40°60' E 009°37'0 0.0
2014-Dec-17 06:29N 40°60' E 009°37'5 4.6
2014-Dec-17 05:29N 41°03' E 009°41'12317.2
2014-Dec-16 22:20N 43°05' E 010°03'1317.4
2014-Dec-16 21:33N 43°18' E 010°08'1515.5
2014-Dec-16 20:34N 43°32' E 010°16'2 1.6
2014-Dec-16 19:33N 43°33' E 010°18'0 0.0
2014-Dec-16 18:33N 43°33' E 010°18'1 0.7
2014-Dec-16 17:34N 43°32' E 010°17'1313.5
2014-Dec-16 16:33N 43°20' E 010°10'1514.8
2014-Dec-16 15:33N 43°06' E 010°02'1514.2
2014-Dec-16 14:31N 42°54' E 009°50'17 3.5
2014-Dec-16 09:33N 43°11' E 009°46'1716.6
2014-Dec-16 08:33N 43°23' E 010°02'1515.0
2014-Dec-16 07:34N 43°32' E 010°17'1 0.7
2014-Dec-16 06:33N 43°33' E 010°18'2 1.8
2014-Dec-16 05:33N 43°32' E 010°16'1514.8
2014-Dec-16 04:33N 43°18' E 010°09'13915.2
2014-Dec-15 19:25N 41°00' E 009°41'3 1.5
2014-Dec-15 17:19N 40°60' E 009°37'0 0.0
2014-Dec-15 16:16N 40°60' E 009°37'0 0.0
2014-Dec-15 15:20N 40°60' E 009°37'0 0.0
2014-Dec-15 13:09N 40°60' E 009°37'0 0.0
2014-Dec-15 12:26N 40°60' E 009°37'0 0.0
2014-Dec-15 11:29N 40°60' E 009°37'0 0.0
2014-Dec-15 10:32N 40°60' E 009°37'0 0.0
2014-Dec-15 09:33N 40°60' E 009°37'0 0.0
2014-Dec-15 08:09N 40°60' E 009°37'0 0.0
2014-Dec-15 07:24N 40°60' E 009°37'0 0.0
2014-Dec-15 06:16N 40°60' E 009°37'12515.5
2014-Dec-14 22:13N 43°03' E 010°01'1116.3
2014-Dec-14 21:34N 43°14' E 010°06'1616.4
2014-Dec-14 20:34N 43°29' E 010°12'6 5.9
2014-Dec-14 19:33N 43°33' E 010°18'0 0.0
2014-Dec-14 18:33N 43°33' E 010°18'0 0.0
2014-Dec-14 17:33N 43°33' E 010°18'0 0.0
2014-Dec-14 16:33N 43°33' E 010°18'0 0.0
2014-Dec-14 15:33N 43°33' E 010°18'0 0.0
2014-Dec-14 14:33N 43°33' E 010°18'0 0.0
2014-Dec-14 13:33N 43°33' E 010°18'0 0.0
2014-Dec-14 12:33N 43°33' E 010°18'0 0.0
2014-Dec-14 11:33N 43°33' E 010°18'0 0.0
2014-Dec-14 10:33N 43°33' E 010°18'0 0.0
2014-Dec-14 09:33N 43°33' E 010°18'0 0.0
2014-Dec-14 08:33N 43°33' E 010°18'0 0.0
2014-Dec-14 07:33N 43°33' E 010°18'7 7.3
2014-Dec-14 06:33N 43°27' E 010°13'1515.3
2014-Dec-14 05:33N 43°12' E 010°08'13613.0
2014-Dec-13 19:07N 40°58' E 009°37'130 6.2
2014-Dec-12 22:05N 43°06' E 010°04'917.0
2014-Dec-12 21:33N 43°15' E 010°07'1717.1
2014-Dec-12 20:34N 43°31' E 010°14'4 3.5
2014-Dec-12 19:33N 43°33' E 010°18'0 0.0
2014-Dec-12 18:34N 43°33' E 010°18'1 0.8
2014-Dec-12 17:34N 43°32' E 010°17'1211.7
2014-Dec-12 16:34N 43°24' E 010°06'1312.9
2014-Dec-12 15:33N 43°15' E 009°54'21 4.1
2014-Dec-12 10:22N 42°54' E 009°48'1415.7
2014-Dec-12 09:28N 43°05' E 009°60'1516.0
2014-Dec-12 08:33N 43°19' E 010°06'1514.8
2014-Dec-12 07:33N 43°32' E 010°16'2 2.1
2014-Dec-12 06:33N 43°33' E 010°18'1 0.7
2014-Dec-12 05:33N 43°33' E 010°17'1312.9
2014-Dec-12 04:33N 43°21' E 010°11'14515.6
2014-Dec-11 19:16N 40°58' E 009°37'1 0.1
2014-Dec-11 06:11N 40°59' E 009°38'  
Track history (hours):
 
Tides and Currents Weather Stations Pressure Air Temp Water Temp Dewpoint Dewpoint Depression Visibility Wind Speed Wind Dir Waves Ship Positions

Sardinia Regina

Last reported at 2014-Dec-21 04:33 UTC. Time now 2014-Dec-21 05:29 UTC.
Position N 43°60' E 008°44'.

Length 146 m; draft 5 m.

Type: Passenger vessel. MMSI: 247079000.

Date/timePositionNaut miles runAvg speedWind from/ knotsBaromVisibWave heightAir tempDewpointWater temp
2014-Dec-21 04:33N 43°60' E 008°44'9 8.9
2014-Dec-21 03:33N 43°52' E 008°50'9 9.2
2014-Dec-21 02:34N 43°44' E 008°57'9 9.3
2014-Dec-21 01:33N 43°37' E 009°04'9 9.5
2014-Dec-21 00:34N 43°29' E 009°11'9 9.4
2014-Dec-20 23:33N 43°21' E 009°18'34 4.6
2014-Dec-20 16:07N 42°54' E 009°47'1117.4
2014-Dec-20 15:29N 43°02' E 009°58'1617.6
2014-Dec-20 14:33N 43°17' E 010°06'1616.3
2014-Dec-20 13:33N 43°32' E 010°16'2 2.2
2014-Dec-20 12:33N 43°33' E 010°18'0 0.0
2014-Dec-20 11:33N 43°33' E 010°18'0 0.0
2014-Dec-20 10:33N 43°33' E 010°18'0 0.0
2014-Dec-20 09:33N 43°33' E 010°18'0 0.0
2014-Dec-20 08:33N 43°33' E 010°18'0 0.0
2014-Dec-20 07:33N 43°33' E 010°18'0 0.0
2014-Dec-20 06:33N 43°33' E 010°18'2 2.3
2014-Dec-20 05:33N 43°32' E 010°16'1514.6
2014-Dec-20 04:33N 43°17' E 010°12'14215.2
2014-Dec-19 19:13N 40°58' E 009°37'125 6.0
2014-Dec-18 22:22N 43°02' E 010°01'1316.7
2014-Dec-18 21:34N 43°15' E 010°06'1716.5
2014-Dec-18 20:33N 43°30' E 010°13'4 4.5
2014-Dec-18 19:33N 43°33' E 010°18'0 0.0
2014-Dec-18 18:33N 43°33' E 010°18'1 1.3
2014-Dec-18 17:33N 43°32' E 010°17'1414.2
2014-Dec-18 16:33N 43°20' E 010°08'30 4.9
2014-Dec-18 10:27N 42°54' E 009°48'1415.6
2014-Dec-18 09:32N 43°05' E 009°60'1515.3
2014-Dec-18 08:34N 43°19' E 010°06'1414.3
2014-Dec-18 07:33N 43°32' E 010°15'3 2.5
2014-Dec-18 06:33N 43°33' E 010°18'0 0.4
2014-Dec-18 05:34N 43°33' E 010°18'1414.1
2014-Dec-18 04:34N 43°20' E 010°10'1716.6
2014-Dec-18 03:33N 43°04' E 010°05'12815.5
2014-Dec-17 19:20N 40°57' E 009°38'2 0.2
2014-Dec-17 07:29N 40°60' E 009°37'0 0.0
2014-Dec-17 06:29N 40°60' E 009°37'5 4.6
2014-Dec-17 05:29N 41°03' E 009°41'12317.2
2014-Dec-16 22:20N 43°05' E 010°03'1317.4
2014-Dec-16 21:33N 43°18' E 010°08'1515.5
2014-Dec-16 20:34N 43°32' E 010°16'2 1.6
2014-Dec-16 19:33N 43°33' E 010°18'0 0.0
2014-Dec-16 18:33N 43°33' E 010°18'1 0.7
2014-Dec-16 17:34N 43°32' E 010°17'1313.5
2014-Dec-16 16:33N 43°20' E 010°10'1514.8
2014-Dec-16 15:33N 43°06' E 010°02'1514.2
2014-Dec-16 14:31N 42°54' E 009°50'17 3.5
2014-Dec-16 09:33N 43°11' E 009°46'1716.6
2014-Dec-16 08:33N 43°23' E 010°02'1515.0
2014-Dec-16 07:34N 43°32' E 010°17'1 0.7
2014-Dec-16 06:33N 43°33' E 010°18'2 1.8
2014-Dec-16 05:33N 43°32' E 010°16'1514.8
2014-Dec-16 04:33N 43°18' E 010°09'13915.2
2014-Dec-15 19:25N 41°00' E 009°41'3 1.5
2014-Dec-15 17:19N 40°60' E 009°37'0 0.0
2014-Dec-15 16:16N 40°60' E 009°37'0 0.0
2014-Dec-15 15:20N 40°60' E 009°37'0 0.0
2014-Dec-15 13:09N 40°60' E 009°37'0 0.0
2014-Dec-15 12:26N 40°60' E 009°37'0 0.0
2014-Dec-15 11:29N 40°60' E 009°37'0 0.0
2014-Dec-15 10:32N 40°60' E 009°37'0 0.0
2014-Dec-15 09:33N 40°60' E 009°37'0 0.0
2014-Dec-15 08:09N 40°60' E 009°37'0 0.0
2014-Dec-15 07:24N 40°60' E 009°37'0 0.0
2014-Dec-15 06:16N 40°60' E 009°37'12515.5
2014-Dec-14 22:13N 43°03' E 010°01'1116.3
2014-Dec-14 21:34N 43°14' E 010°06'1616.4
2014-Dec-14 20:34N 43°29' E 010°12'6 5.9
2014-Dec-14 19:33N 43°33' E 010°18'0 0.0
2014-Dec-14 18:33N 43°33' E 010°18'0 0.0
2014-Dec-14 17:33N 43°33' E 010°18'0 0.0
2014-Dec-14 16:33N 43°33' E 010°18'0 0.0
2014-Dec-14 15:33N 43°33' E 010°18'0 0.0
2014-Dec-14 14:33N 43°33' E 010°18'0 0.0
2014-Dec-14 13:33N 43°33' E 010°18'0 0.0
2014-Dec-14 12:33N 43°33' E 010°18'0 0.0
2014-Dec-14 11:33N 43°33' E 010°18'0 0.0
2014-Dec-14 10:33N 43°33' E 010°18'0 0.0
2014-Dec-14 09:33N 43°33' E 010°18'0 0.0
2014-Dec-14 08:33N 43°33' E 010°18'0 0.0
2014-Dec-14 07:33N 43°33' E 010°18'7 7.3
2014-Dec-14 06:33N 43°27' E 010°13'1515.3
2014-Dec-14 05:33N 43°12' E 010°08'13613.0
2014-Dec-13 19:07N 40°58' E 009°37'130 6.2
2014-Dec-12 22:05N 43°06' E 010°04'917.0
2014-Dec-12 21:33N 43°15' E 010°07'1717.1
2014-Dec-12 20:34N 43°31' E 010°14'4 3.5
2014-Dec-12 19:33N 43°33' E 010°18'0 0.0
2014-Dec-12 18:34N 43°33' E 010°18'1 0.8
2014-Dec-12 17:34N 43°32' E 010°17'1211.7
2014-Dec-12 16:34N 43°24' E 010°06'1312.9
2014-Dec-12 15:33N 43°15' E 009°54'21 4.1
2014-Dec-12 10:22N 42°54' E 009°48'1415.7
2014-Dec-12 09:28N 43°05' E 009°60'1516.0
2014-Dec-12 08:33N 43°19' E 010°06'1514.8
2014-Dec-12 07:33N 43°32' E 010°16'2 2.1
2014-Dec-12 06:33N 43°33' E 010°18'1 0.7
2014-Dec-12 05:33N 43°33' E 010°17'1312.9
2014-Dec-12 04:33N 43°21' E 010°11'14515.6
2014-Dec-11 19:16N 40°58' E 009°37'1 0.1
2014-Dec-11 06:11N 40°59' E 009°38'  

Dump ship's entire track history